sensor_id;sensor_type;location;lat;lon;timestamp;P1;durP1;ratioP1;P2;durP2;ratioP2
14139;SDS011;7150;53.514;9.988;2024-01-15T00:01:42;2.83;;;1.50;;
14139;SDS011;7150;53.514;9.988;2024-01-15T00:04:09;5.17;;;1.27;;
14139;SDS011;7150;53.514;9.988;2024-01-15T00:06:34;5.77;;;1.17;;
14139;SDS011;7150;53.514;9.988;2024-01-15T00:09:00;6.10;;;1.47;;
14139;SDS011;7150;53.514;9.988;2024-01-15T00:11:25;10.77;;;2.43;;
14139;SDS011;7150;53.514;9.988;2024-01-15T00:13:51;3.97;;;1.60;;
14139;SDS011;7150;53.514;9.988;2024-01-15T00:16:17;5.93;;;1.87;;
14139;SDS011;7150;53.514;9.988;2024-01-15T00:18:42;6.50;;;1.80;;
14139;SDS011;7150;53.514;9.988;2024-01-15T00:21:07;5.67;;;1.33;;
14139;SDS011;7150;53.514;9.988;2024-01-15T00:23:33;8.73;;;1.60;;
14139;SDS011;7150;53.514;9.988;2024-01-15T00:25:58;6.43;;;2.00;;
14139;SDS011;7150;53.514;9.988;2024-01-15T00:28:24;10.77;;;2.47;;
14139;SDS011;7150;53.514;9.988;2024-01-15T00:30:49;8.20;;;1.70;;
14139;SDS011;7150;53.514;9.988;2024-01-15T00:33:15;6.80;;;1.80;;
14139;SDS011;7150;53.514;9.988;2024-01-15T00:35:40;7.00;;;2.20;;
14139;SDS011;7150;53.514;9.988;2024-01-15T00:38:06;6.87;;;1.53;;
14139;SDS011;7150;53.514;9.988;2024-01-15T00:40:32;8.70;;;2.00;;
14139;SDS011;7150;53.514;9.988;2024-01-15T00:42:58;8.77;;;1.80;;
14139;SDS011;7150;53.514;9.988;2024-01-15T00:45:23;5.40;;;2.00;;
14139;SDS011;7150;53.514;9.988;2024-01-15T00:47:49;6.00;;;1.80;;
14139;SDS011;7150;53.514;9.988;2024-01-15T00:50:14;7.50;;;2.17;;
14139;SDS011;7150;53.514;9.988;2024-01-15T00:52:40;4.70;;;1.60;;
14139;SDS011;7150;53.514;9.988;2024-01-15T00:55:05;4.57;;;1.57;;
14139;SDS011;7150;53.514;9.988;2024-01-15T00:57:31;8.53;;;1.70;;
14139;SDS011;7150;53.514;9.988;2024-01-15T00:59:57;5.80;;;1.70;;
14139;SDS011;7150;53.514;9.988;2024-01-15T01:02:23;7.00;;;2.20;;
14139;SDS011;7150;53.514;9.988;2024-01-15T01:04:49;7.83;;;1.93;;
14139;SDS011;7150;53.514;9.988;2024-01-15T01:07:14;7.73;;;2.37;;
14139;SDS011;7150;53.514;9.988;2024-01-15T01:09:40;6.43;;;1.50;;
14139;SDS011;7150;53.514;9.988;2024-01-15T01:12:05;8.70;;;1.97;;
14139;SDS011;7150;53.514;9.988;2024-01-15T01:14:31;4.90;;;1.73;;
14139;SDS011;7150;53.514;9.988;2024-01-15T01:16:57;6.33;;;1.97;;
14139;SDS011;7150;53.514;9.988;2024-01-15T01:19:22;16.43;;;2.23;;
14139;SDS011;7150;53.514;9.988;2024-01-15T01:21:48;9.43;;;1.73;;
14139;SDS011;7150;53.514;9.988;2024-01-15T01:24:15;6.30;;;1.70;;
14139;SDS011;7150;53.514;9.988;2024-01-15T01:26:41;6.30;;;2.00;;
14139;SDS011;7150;53.514;9.988;2024-01-15T01:29:06;9.63;;;1.53;;
14139;SDS011;7150;53.514;9.988;2024-01-15T01:31:32;8.30;;;1.70;;
14139;SDS011;7150;53.514;9.988;2024-01-15T01:33:57;8.30;;;2.13;;
14139;SDS011;7150;53.514;9.988;2024-01-15T01:36:23;6.93;;;1.90;;
14139;SDS011;7150;53.514;9.988;2024-01-15T01:38:48;7.80;;;1.90;;
14139;SDS011;7150;53.514;9.988;2024-01-15T01:41:13;6.33;;;1.70;;
14139;SDS011;7150;53.514;9.988;2024-01-15T01:43:40;6.63;;;1.97;;
14139;SDS011;7150;53.514;9.988;2024-01-15T01:46:05;6.73;;;2.70;;
14139;SDS011;7150;53.514;9.988;2024-01-15T01:48:32;6.47;;;1.50;;
14139;SDS011;7150;53.514;9.988;2024-01-15T01:50:58;6.10;;;1.60;;
14139;SDS011;7150;53.514;9.988;2024-01-15T01:53:26;7.17;;;1.60;;
14139;SDS011;7150;53.514;9.988;2024-01-15T01:55:53;7.27;;;1.70;;
14139;SDS011;7150;53.514;9.988;2024-01-15T01:58:20;11.10;;;2.10;;
14139;SDS011;7150;53.514;9.988;2024-01-15T02:00:46;7.93;;;1.67;;
14139;SDS011;7150;53.514;9.988;2024-01-15T02:03:12;4.50;;;1.57;;
14139;SDS011;7150;53.514;9.988;2024-01-15T02:05:38;5.13;;;1.77;;
14139;SDS011;7150;53.514;9.988;2024-01-15T02:08:04;2.93;;;1.27;;
14139;SDS011;7150;53.514;9.988;2024-01-15T02:10:30;8.07;;;1.73;;
14139;SDS011;7150;53.514;9.988;2024-01-15T02:12:56;6.03;;;1.60;;
14139;SDS011;7150;53.514;9.988;2024-01-15T02:15:22;7.53;;;1.40;;
14139;SDS011;7150;53.514;9.988;2024-01-15T02:20:26;9.67;;;1.60;;
14139;SDS011;7150;53.514;9.988;2024-01-15T02:22:52;2.40;;;1.10;;
14139;SDS011;7150;53.514;9.988;2024-01-15T02:25:18;5.63;;;1.40;;
14139;SDS011;7150;53.514;9.988;2024-01-15T02:27:44;4.47;;;1.30;;
14139;SDS011;7150;53.514;9.988;2024-01-15T02:30:11;4.20;;;1.03;;
14139;SDS011;7150;53.514;9.988;2024-01-15T02:32:37;5.47;;;1.63;;
14139;SDS011;7150;53.514;9.988;2024-01-15T02:35:03;5.57;;;1.20;;
14139;SDS011;7150;53.514;9.988;2024-01-15T02:37:29;5.60;;;1.50;;
14139;SDS011;7150;53.514;9.988;2024-01-15T02:39:55;6.53;;;1.63;;
14139;SDS011;7150;53.514;9.988;2024-01-15T02:42:20;5.03;;;1.47;;
14139;SDS011;7150;53.514;9.988;2024-01-15T02:44:45;7.20;;;1.70;;
14139;SDS011;7150;53.514;9.988;2024-01-15T02:47:11;2.33;;;1.37;;
14139;SDS011;7150;53.514;9.988;2024-01-15T02:49:36;5.63;;;1.43;;
14139;SDS011;7150;53.514;9.988;2024-01-15T02:52:02;3.23;;;1.07;;
14139;SDS011;7150;53.514;9.988;2024-01-15T02:54:28;3.47;;;1.30;;
14139;SDS011;7150;53.514;9.988;2024-01-15T02:56:53;7.73;;;1.63;;
14139;SDS011;7150;53.514;9.988;2024-01-15T02:59:19;6.30;;;1.70;;
14139;SDS011;7150;53.514;9.988;2024-01-15T03:01:44;8.63;;;1.77;;
14139;SDS011;7150;53.514;9.988;2024-01-15T03:04:09;2.87;;;1.23;;
14139;SDS011;7150;53.514;9.988;2024-01-15T03:06:35;5.40;;;1.40;;
14139;SDS011;7150;53.514;9.988;2024-01-15T03:09:00;6.03;;;1.83;;
14139;SDS011;7150;53.514;9.988;2024-01-15T03:11:26;6.93;;;2.13;;
14139;SDS011;7150;53.514;9.988;2024-01-15T03:13:51;6.63;;;1.80;;
14139;SDS011;7150;53.514;9.988;2024-01-15T03:16:17;5.87;;;1.57;;
14139;SDS011;7150;53.514;9.988;2024-01-15T03:18:44;4.97;;;1.23;;
14139;SDS011;7150;53.514;9.988;2024-01-15T03:21:10;4.80;;;1.40;;
14139;SDS011;7150;53.514;9.988;2024-01-15T03:23:35;5.80;;;1.70;;
14139;SDS011;7150;53.514;9.988;2024-01-15T03:26:01;6.23;;;1.43;;
14139;SDS011;7150;53.514;9.988;2024-01-15T03:28:26;4.70;;;1.30;;
14139;SDS011;7150;53.514;9.988;2024-01-15T03:30:52;8.37;;;1.97;;
14139;SDS011;7150;53.514;9.988;2024-01-15T03:33:17;7.27;;;1.53;;
14139;SDS011;7150;53.514;9.988;2024-01-15T03:35:43;5.83;;;1.47;;
14139;SDS011;7150;53.514;9.988;2024-01-15T03:38:08;5.20;;;1.70;;
14139;SDS011;7150;53.514;9.988;2024-01-15T03:40:34;8.17;;;1.80;;
14139;SDS011;7150;53.514;9.988;2024-01-15T03:42:59;5.70;;;2.50;;
14139;SDS011;7150;53.514;9.988;2024-01-15T03:45:25;7.87;;;1.87;;
14139;SDS011;7150;53.514;9.988;2024-01-15T03:47:50;7.93;;;1.83;;
14139;SDS011;7150;53.514;9.988;2024-01-15T03:50:16;3.70;;;1.43;;
14139;SDS011;7150;53.514;9.988;2024-01-15T03:52:42;7.53;;;2.00;;
14139;SDS011;7150;53.514;9.988;2024-01-15T03:55:07;5.43;;;1.90;;
14139;SDS011;7150;53.514;9.988;2024-01-15T03:57:33;6.87;;;1.67;;
14139;SDS011;7150;53.514;9.988;2024-01-15T03:59:58;7.17;;;2.40;;
14139;SDS011;7150;53.514;9.988;2024-01-15T04:02:24;5.53;;;1.77;;
14139;SDS011;7150;53.514;9.988;2024-01-15T04:04:49;7.77;;;2.33;;
14139;SDS011;7150;53.514;9.988;2024-01-15T04:07:15;13.07;;;2.00;;
14139;SDS011;7150;53.514;9.988;2024-01-15T04:09:40;10.57;;;2.43;;
14139;SDS011;7150;53.514;9.988;2024-01-15T04:12:06;5.80;;;1.40;;
14139;SDS011;7150;53.514;9.988;2024-01-15T04:14:31;8.77;;;2.13;;
14139;SDS011;7150;53.514;9.988;2024-01-15T04:16:57;7.47;;;1.90;;
14139;SDS011;7150;53.514;9.988;2024-01-15T04:19:22;14.50;;;2.33;;
14139;SDS011;7150;53.514;9.988;2024-01-15T04:21:48;9.83;;;2.27;;
14139;SDS011;7150;53.514;9.988;2024-01-15T04:24:13;12.13;;;2.30;;
14139;SDS011;7150;53.514;9.988;2024-01-15T04:26:39;7.03;;;2.23;;
14139;SDS011;7150;53.514;9.988;2024-01-15T04:29:04;10.27;;;1.83;;
14139;SDS011;7150;53.514;9.988;2024-01-15T04:31:30;6.60;;;2.13;;
14139;SDS011;7150;53.514;9.988;2024-01-15T04:33:55;10.60;;;2.63;;
14139;SDS011;7150;53.514;9.988;2024-01-15T04:36:21;8.40;;;2.50;;
14139;SDS011;7150;53.514;9.988;2024-01-15T04:38:46;8.93;;;1.97;;
14139;SDS011;7150;53.514;9.988;2024-01-15T04:41:12;13.40;;;2.60;;
14139;SDS011;7150;53.514;9.988;2024-01-15T04:43:38;12.77;;;2.40;;
14139;SDS011;7150;53.514;9.988;2024-01-15T04:46:05;8.07;;;2.40;;
14139;SDS011;7150;53.514;9.988;2024-01-15T04:48:31;10.27;;;2.30;;
14139;SDS011;7150;53.514;9.988;2024-01-15T04:50:57;10.03;;;2.30;;
14139;SDS011;7150;53.514;9.988;2024-01-15T04:53:23;10.67;;;2.73;;
14139;SDS011;7150;53.514;9.988;2024-01-15T04:55:48;8.60;;;2.97;;
14139;SDS011;7150;53.514;9.988;2024-01-15T04:58:13;14.30;;;2.90;;
14139;SDS011;7150;53.514;9.988;2024-01-15T05:00:39;12.13;;;2.77;;
14139;SDS011;7150;53.514;9.988;2024-01-15T05:03:04;7.73;;;2.30;;
14139;SDS011;7150;53.514;9.988;2024-01-15T05:05:30;10.30;;;2.13;;
14139;SDS011;7150;53.514;9.988;2024-01-15T05:07:55;7.97;;;2.17;;
14139;SDS011;7150;53.514;9.988;2024-01-15T05:10:21;13.87;;;2.63;;
14139;SDS011;7150;53.514;9.988;2024-01-15T05:12:46;8.37;;;2.77;;
14139;SDS011;7150;53.514;9.988;2024-01-15T05:15:12;15.73;;;2.47;;
14139;SDS011;7150;53.514;9.988;2024-01-15T05:17:37;12.73;;;2.20;;
14139;SDS011;7150;53.514;9.988;2024-01-15T05:20:03;6.50;;;2.20;;
14139;SDS011;7150;53.514;9.988;2024-01-15T05:22:29;10.13;;;2.60;;
14139;SDS011;7150;53.514;9.988;2024-01-15T05:24:55;8.13;;;2.60;;
14139;SDS011;7150;53.514;9.988;2024-01-15T05:27:20;9.60;;;1.97;;
14139;SDS011;7150;53.514;9.988;2024-01-15T05:29:46;11.43;;;2.30;;
14139;SDS011;7150;53.514;9.988;2024-01-15T05:32:11;9.30;;;2.17;;
14139;SDS011;7150;53.514;9.988;2024-01-15T05:34:37;9.23;;;2.20;;
14139;SDS011;7150;53.514;9.988;2024-01-15T05:37:02;7.60;;;2.20;;
14139;SDS011;7150;53.514;9.988;2024-01-15T05:39:28;6.50;;;2.33;;
14139;SDS011;7150;53.514;9.988;2024-01-15T05:41:53;13.33;;;2.30;;
14139;SDS011;7150;53.514;9.988;2024-01-15T05:44:19;8.60;;;2.03;;
14139;SDS011;7150;53.514;9.988;2024-01-15T05:46:44;10.80;;;2.80;;
14139;SDS011;7150;53.514;9.988;2024-01-15T05:49:10;6.73;;;2.00;;
14139;SDS011;7150;53.514;9.988;2024-01-15T05:51:35;10.13;;;2.03;;
14139;SDS011;7150;53.514;9.988;2024-01-15T05:54:01;8.63;;;2.20;;
14139;SDS011;7150;53.514;9.988;2024-01-15T05:56:26;9.00;;;2.57;;
14139;SDS011;7150;53.514;9.988;2024-01-15T05:58:52;14.33;;;2.30;;
14139;SDS011;7150;53.514;9.988;2024-01-15T06:01:17;12.07;;;2.97;;
14139;SDS011;7150;53.514;9.988;2024-01-15T06:03:43;10.03;;;3.27;;
14139;SDS011;7150;53.514;9.988;2024-01-15T06:06:08;9.93;;;2.20;;
14139;SDS011;7150;53.514;9.988;2024-01-15T06:08:34;7.77;;;1.70;;
14139;SDS011;7150;53.514;9.988;2024-01-15T06:10:59;7.97;;;2.80;;
14139;SDS011;7150;53.514;9.988;2024-01-15T06:13:25;16.70;;;2.93;;
14139;SDS011;7150;53.514;9.988;2024-01-15T06:15:51;11.87;;;2.73;;
14139;SDS011;7150;53.514;9.988;2024-01-15T06:18:16;9.37;;;2.40;;
14139;SDS011;7150;53.514;9.988;2024-01-15T06:20:42;7.77;;;2.20;;
14139;SDS011;7150;53.514;9.988;2024-01-15T06:23:07;10.70;;;2.23;;
14139;SDS011;7150;53.514;9.988;2024-01-15T06:25:33;12.43;;;3.20;;
14139;SDS011;7150;53.514;9.988;2024-01-15T06:27:58;11.70;;;2.57;;
14139;SDS011;7150;53.514;9.988;2024-01-15T06:30:24;8.03;;;2.40;;
14139;SDS011;7150;53.514;9.988;2024-01-15T06:32:49;15.57;;;2.60;;
14139;SDS011;7150;53.514;9.988;2024-01-15T06:35:15;10.37;;;2.30;;
14139;SDS011;7150;53.514;9.988;2024-01-15T06:37:40;11.47;;;2.73;;
14139;SDS011;7150;53.514;9.988;2024-01-15T06:40:06;14.23;;;3.13;;
14139;SDS011;7150;53.514;9.988;2024-01-15T06:42:33;8.67;;;2.33;;
14139;SDS011;7150;53.514;9.988;2024-01-15T06:44:58;10.47;;;2.97;;
14139;SDS011;7150;53.514;9.988;2024-01-15T06:47:23;14.47;;;2.53;;
14139;SDS011;7150;53.514;9.988;2024-01-15T06:49:49;9.53;;;2.33;;
14139;SDS011;7150;53.514;9.988;2024-01-15T06:52:16;6.30;;;2.20;;
14139;SDS011;7150;53.514;9.988;2024-01-15T06:54:42;10.77;;;2.57;;
14139;SDS011;7150;53.514;9.988;2024-01-15T06:57:07;7.93;;;1.90;;
14139;SDS011;7150;53.514;9.988;2024-01-15T06:59:33;11.03;;;2.17;;
14139;SDS011;7150;53.514;9.988;2024-01-15T07:02:00;6.77;;;2.33;;
14139;SDS011;7150;53.514;9.988;2024-01-15T07:04:26;13.53;;;2.93;;
14139;SDS011;7150;53.514;9.988;2024-01-15T07:06:51;8.67;;;2.07;;
14139;SDS011;7150;53.514;9.988;2024-01-15T07:09:16;7.30;;;1.93;;
14139;SDS011;7150;53.514;9.988;2024-01-15T07:11:45;5.73;;;2.27;;
14139;SDS011;7150;53.514;9.988;2024-01-15T07:14:14;6.07;;;2.13;;
14139;SDS011;7150;53.514;9.988;2024-01-15T07:16:39;11.43;;;1.90;;
14139;SDS011;7150;53.514;9.988;2024-01-15T07:19:05;7.43;;;2.10;;
14139;SDS011;7150;53.514;9.988;2024-01-15T07:21:30;7.53;;;1.97;;
14139;SDS011;7150;53.514;9.988;2024-01-15T07:23:56;7.10;;;1.90;;
14139;SDS011;7150;53.514;9.988;2024-01-15T07:26:21;7.10;;;1.63;;
14139;SDS011;7150;53.514;9.988;2024-01-15T07:28:47;7.87;;;2.00;;
14139;SDS011;7150;53.514;9.988;2024-01-15T07:31:12;8.10;;;2.27;;
14139;SDS011;7150;53.514;9.988;2024-01-15T07:33:41;7.23;;;1.80;;
14139;SDS011;7150;53.514;9.988;2024-01-15T07:36:06;6.30;;;2.80;;
14139;SDS011;7150;53.514;9.988;2024-01-15T07:38:32;4.77;;;1.40;;
14139;SDS011;7150;53.514;9.988;2024-01-15T07:40:57;8.53;;;1.77;;
14139;SDS011;7150;53.514;9.988;2024-01-15T07:43:23;5.90;;;1.97;;
14139;SDS011;7150;53.514;9.988;2024-01-15T07:45:48;8.77;;;2.27;;
14139;SDS011;7150;53.514;9.988;2024-01-15T07:48:14;10.10;;;1.93;;
14139;SDS011;7150;53.514;9.988;2024-01-15T07:50:39;8.60;;;1.83;;
14139;SDS011;7150;53.514;9.988;2024-01-15T07:53:05;9.33;;;2.00;;
14139;SDS011;7150;53.514;9.988;2024-01-15T07:55:30;10.93;;;2.97;;
14139;SDS011;7150;53.514;9.988;2024-01-15T07:57:56;6.70;;;2.57;;
14139;SDS011;7150;53.514;9.988;2024-01-15T08:00:24;8.77;;;1.60;;
14139;SDS011;7150;53.514;9.988;2024-01-15T08:02:50;5.83;;;1.70;;
14139;SDS011;7150;53.514;9.988;2024-01-15T08:05:16;6.87;;;2.03;;
14139;SDS011;7150;53.514;9.988;2024-01-15T08:07:41;6.27;;;2.10;;
14139;SDS011;7150;53.514;9.988;2024-01-15T08:10:07;6.93;;;2.10;;
14139;SDS011;7150;53.514;9.988;2024-01-15T08:12:33;6.47;;;1.83;;
14139;SDS011;7150;53.514;9.988;2024-01-15T08:14:58;6.47;;;1.63;;
14139;SDS011;7150;53.514;9.988;2024-01-15T08:17:23;10.07;;;2.10;;
14139;SDS011;7150;53.514;9.988;2024-01-15T08:19:53;6.53;;;1.83;;
14139;SDS011;7150;53.514;9.988;2024-01-15T08:22:19;8.33;;;2.00;;
14139;SDS011;7150;53.514;9.988;2024-01-15T08:24:44;7.67;;;1.83;;
14139;SDS011;7150;53.514;9.988;2024-01-15T08:27:10;7.10;;;1.50;;
14139;SDS011;7150;53.514;9.988;2024-01-15T08:29:36;7.20;;;2.10;;
14139;SDS011;7150;53.514;9.988;2024-01-15T08:32:01;9.17;;;1.50;;
14139;SDS011;7150;53.514;9.988;2024-01-15T08:34:27;3.97;;;1.10;;
14139;SDS011;7150;53.514;9.988;2024-01-15T08:36:52;4.10;;;1.47;;
14139;SDS011;7150;53.514;9.988;2024-01-15T08:39:18;4.80;;;1.50;;
14139;SDS011;7150;53.514;9.988;2024-01-15T08:41:44;7.57;;;2.00;;
14139;SDS011;7150;53.514;9.988;2024-01-15T08:44:11;7.43;;;1.60;;
14139;SDS011;7150;53.514;9.988;2024-01-15T08:46:37;5.20;;;1.60;;
14139;SDS011;7150;53.514;9.988;2024-01-15T08:49:02;6.47;;;2.23;;
14139;SDS011;7150;53.514;9.988;2024-01-15T08:51:28;4.40;;;1.43;;
14139;SDS011;7150;53.514;9.988;2024-01-15T08:53:54;5.37;;;2.03;;
14139;SDS011;7150;53.514;9.988;2024-01-15T08:56:23;6.60;;;1.40;;
14139;SDS011;7150;53.514;9.988;2024-01-15T08:58:49;4.90;;;1.23;;
14139;SDS011;7150;53.514;9.988;2024-01-15T09:01:15;4.70;;;1.40;;
14139;SDS011;7150;53.514;9.988;2024-01-15T09:03:40;4.90;;;1.60;;
14139;SDS011;7150;53.514;9.988;2024-01-15T09:06:07;3.40;;;1.23;;
14139;SDS011;7150;53.514;9.988;2024-01-15T09:08:34;7.17;;;2.13;;
14139;SDS011;7150;53.514;9.988;2024-01-15T09:11:00;6.23;;;1.70;;
14139;SDS011;7150;53.514;9.988;2024-01-15T09:13:27;5.47;;;1.90;;
14139;SDS011;7150;53.514;9.988;2024-01-15T09:15:53;4.90;;;1.60;;
14139;SDS011;7150;53.514;9.988;2024-01-15T09:18:18;3.13;;;1.20;;
14139;SDS011;7150;53.514;9.988;2024-01-15T09:20:44;6.03;;;1.50;;
14139;SDS011;7150;53.514;9.988;2024-01-15T09:23:09;5.77;;;1.70;;
14139;SDS011;7150;53.514;9.988;2024-01-15T09:25:35;3.97;;;1.70;;
14139;SDS011;7150;53.514;9.988;2024-01-15T09:28:00;6.93;;;1.60;;
14139;SDS011;7150;53.514;9.988;2024-01-15T09:30:27;4.73;;;1.80;;
14139;SDS011;7150;53.514;9.988;2024-01-15T09:32:52;6.00;;;1.40;;
14139;SDS011;7150;53.514;9.988;2024-01-15T09:35:18;6.30;;;1.97;;
14139;SDS011;7150;53.514;9.988;2024-01-15T09:37:43;5.37;;;1.50;;
14139;SDS011;7150;53.514;9.988;2024-01-15T09:40:09;3.90;;;1.20;;
14139;SDS011;7150;53.514;9.988;2024-01-15T09:42:39;5.03;;;1.50;;
14139;SDS011;7150;53.514;9.988;2024-01-15T09:45:04;3.53;;;1.43;;
14139;SDS011;7150;53.514;9.988;2024-01-15T09:47:31;7.63;;;2.10;;
14139;SDS011;7150;53.514;9.988;2024-01-15T09:49:56;5.30;;;1.87;;
14139;SDS011;7150;53.514;9.988;2024-01-15T09:52:23;6.50;;;1.30;;
14139;SDS011;7150;53.514;9.988;2024-01-15T09:54:50;3.50;;;1.47;;
14139;SDS011;7150;53.514;9.988;2024-01-15T09:57:16;7.67;;;1.63;;
14139;SDS011;7150;53.514;9.988;2024-01-15T09:59:42;3.77;;;1.30;;
14139;SDS011;7150;53.514;9.988;2024-01-15T10:02:09;4.40;;;1.50;;
14139;SDS011;7150;53.514;9.988;2024-01-15T10:04:39;2.80;;;1.20;;
14139;SDS011;7150;53.514;9.988;2024-01-15T10:07:04;3.07;;;1.20;;
14139;SDS011;7150;53.514;9.988;2024-01-15T10:09:32;6.00;;;1.60;;
14139;SDS011;7150;53.514;9.988;2024-01-15T10:11:58;4.63;;;1.23;;
14139;SDS011;7150;53.514;9.988;2024-01-15T10:14:24;2.40;;;1.20;;
14139;SDS011;7150;53.514;9.988;2024-01-15T10:16:49;3.27;;;1.27;;
14139;SDS011;7150;53.514;9.988;2024-01-15T10:19:15;1.97;;;1.33;;
14139;SDS011;7150;53.514;9.988;2024-01-15T10:21:40;2.93;;;1.70;;
14139;SDS011;7150;53.514;9.988;2024-01-15T10:24:06;3.33;;;1.33;;
14139;SDS011;7150;53.514;9.988;2024-01-15T10:26:31;2.37;;;0.90;;
14139;SDS011;7150;53.514;9.988;2024-01-15T10:29:00;4.20;;;1.50;;
14139;SDS011;7150;53.514;9.988;2024-01-15T10:31:26;1.13;;;1.03;;
14139;SDS011;7150;53.514;9.988;2024-01-15T10:33:52;5.03;;;1.60;;
14139;SDS011;7150;53.514;9.988;2024-01-15T10:36:18;2.03;;;1.20;;
14139;SDS011;7150;53.514;9.988;2024-01-15T10:38:44;5.37;;;1.60;;
14139;SDS011;7150;53.514;9.988;2024-01-15T10:41:10;3.43;;;1.00;;
14139;SDS011;7150;53.514;9.988;2024-01-15T10:43:35;2.73;;;1.50;;
14139;SDS011;7150;53.514;9.988;2024-01-15T10:46:01;2.27;;;1.43;;
14139;SDS011;7150;53.514;9.988;2024-01-15T10:48:28;4.20;;;1.20;;
14139;SDS011;7150;53.514;9.988;2024-01-15T10:50:55;2.20;;;1.33;;
14139;SDS011;7150;53.514;9.988;2024-01-15T10:53:22;2.60;;;1.27;;
14139;SDS011;7150;53.514;9.988;2024-01-15T10:55:50;5.40;;;1.20;;
14139;SDS011;7150;53.514;9.988;2024-01-15T10:58:16;3.23;;;1.30;;
14139;SDS011;7150;53.514;9.988;2024-01-15T11:00:43;1.00;;;0.80;;
14139;SDS011;7150;53.514;9.988;2024-01-15T11:03:08;3.83;;;1.00;;
14139;SDS011;7150;53.514;9.988;2024-01-15T11:05:38;1.50;;;0.97;;
14139;SDS011;7150;53.514;9.988;2024-01-15T11:08:06;2.77;;;1.10;;
14139;SDS011;7150;53.514;9.988;2024-01-15T11:18:22;2.40;;;1.43;;
14139;SDS011;7150;53.514;9.988;2024-01-15T11:23:44;1.80;;;0.83;;
14139;SDS011;7150;53.514;9.988;2024-01-15T11:29:10;3.77;;;1.50;;
14139;SDS011;7150;53.514;9.988;2024-01-15T11:32:00;2.73;;;1.30;;
14139;SDS011;7150;53.514;9.988;2024-01-15T11:37:23;2.93;;;1.93;;
14139;SDS011;7150;53.514;9.988;2024-01-15T11:40:01;3.67;;;1.30;;
14139;SDS011;7150;53.514;9.988;2024-01-15T11:42:28;2.20;;;1.10;;
14139;SDS011;7150;53.514;9.988;2024-01-15T11:44:55;3.77;;;1.10;;
14139;SDS011;7150;53.514;9.988;2024-01-15T11:50:08;1.57;;;1.20;;
14139;SDS011;7150;53.514;9.988;2024-01-15T11:52:35;2.00;;;1.20;;
14139;SDS011;7150;53.514;9.988;2024-01-15T11:55:07;3.43;;;1.67;;
14139;SDS011;7150;53.514;9.988;2024-01-15T11:57:50;3.00;;;1.20;;
14139;SDS011;7150;53.514;9.988;2024-01-15T12:00:18;1.93;;;1.50;;
14139;SDS011;7150;53.514;9.988;2024-01-15T12:02:44;2.07;;;1.30;;
14139;SDS011;7150;53.514;9.988;2024-01-15T12:05:12;1.03;;;0.93;;
14139;SDS011;7150;53.514;9.988;2024-01-15T12:07:45;1.53;;;1.20;;
14139;SDS011;7150;53.514;9.988;2024-01-15T12:10:15;1.90;;;1.10;;
14139;SDS011;7150;53.514;9.988;2024-01-15T12:12:50;2.40;;;1.77;;
14139;SDS011;7150;53.514;9.988;2024-01-15T12:15:35;1.53;;;0.90;;
14139;SDS011;7150;53.514;9.988;2024-01-15T12:18:01;2.40;;;1.53;;
14139;SDS011;7150;53.514;9.988;2024-01-15T12:20:30;1.87;;;1.20;;
14139;SDS011;7150;53.514;9.988;2024-01-15T12:22:57;4.30;;;1.43;;
14139;SDS011;7150;53.514;9.988;2024-01-15T12:25:24;2.60;;;1.53;;
14139;SDS011;7150;53.514;9.988;2024-01-15T12:27:52;2.37;;;1.43;;
14139;SDS011;7150;53.514;9.988;2024-01-15T12:30:18;2.03;;;1.67;;
14139;SDS011;7150;53.514;9.988;2024-01-15T12:32:43;1.40;;;1.20;;
14139;SDS011;7150;53.514;9.988;2024-01-15T12:35:09;1.70;;;1.00;;
14139;SDS011;7150;53.514;9.988;2024-01-15T12:37:36;1.17;;;1.00;;
14139;SDS011;7150;53.514;9.988;2024-01-15T12:40:03;1.13;;;1.03;;
14139;SDS011;7150;53.514;9.988;2024-01-15T12:42:31;2.80;;;1.03;;
14139;SDS011;7150;53.514;9.988;2024-01-15T12:44:57;0.90;;;0.80;;
14139;SDS011;7150;53.514;9.988;2024-01-15T12:47:23;1.37;;;1.03;;
14139;SDS011;7150;53.514;9.988;2024-01-15T12:49:50;1.63;;;0.73;;
14139;SDS011;7150;53.514;9.988;2024-01-15T12:52:19;3.07;;;1.63;;
14139;SDS011;7150;53.514;9.988;2024-01-15T12:54:46;1.73;;;1.30;;
14139;SDS011;7150;53.514;9.988;2024-01-15T12:57:13;2.53;;;1.50;;
14139;SDS011;7150;53.514;9.988;2024-01-15T12:59:38;3.23;;;1.93;;
14139;SDS011;7150;53.514;9.988;2024-01-15T13:02:04;1.73;;;1.43;;
14139;SDS011;7150;53.514;9.988;2024-01-15T13:04:30;2.27;;;2.00;;
14139;SDS011;7150;53.514;9.988;2024-01-15T13:06:55;1.97;;;1.40;;
14139;SDS011;7150;53.514;9.988;2024-01-15T13:09:21;2.67;;;1.50;;
14139;SDS011;7150;53.514;9.988;2024-01-15T13:11:47;2.27;;;1.60;;
14139;SDS011;7150;53.514;9.988;2024-01-15T13:14:13;4.67;;;2.20;;
14139;SDS011;7150;53.514;9.988;2024-01-15T13:16:39;3.40;;;2.27;;
14139;SDS011;7150;53.514;9.988;2024-01-15T13:19:06;2.70;;;2.13;;
14139;SDS011;7150;53.514;9.988;2024-01-15T13:21:33;4.97;;;2.50;;
14139;SDS011;7150;53.514;9.988;2024-01-15T13:23:58;2.97;;;1.93;;
14139;SDS011;7150;53.514;9.988;2024-01-15T13:26:24;3.00;;;2.10;;
14139;SDS011;7150;53.514;9.988;2024-01-15T13:28:50;2.33;;;1.80;;
14139;SDS011;7150;53.514;9.988;2024-01-15T13:31:15;3.77;;;1.80;;
14139;SDS011;7150;53.514;9.988;2024-01-15T13:33:40;2.73;;;1.50;;
14139;SDS011;7150;53.514;9.988;2024-01-15T13:36:06;2.23;;;1.50;;
14139;SDS011;7150;53.514;9.988;2024-01-15T13:38:36;2.93;;;1.47;;
14139;SDS011;7150;53.514;9.988;2024-01-15T13:41:03;2.93;;;1.60;;
14139;SDS011;7150;53.514;9.988;2024-01-15T13:43:29;3.80;;;2.00;;
14139;SDS011;7150;53.514;9.988;2024-01-15T13:45:55;4.67;;;2.27;;
14139;SDS011;7150;53.514;9.988;2024-01-15T13:48:20;2.57;;;2.00;;
14139;SDS011;7150;53.514;9.988;2024-01-15T13:50:46;2.57;;;1.80;;
14139;SDS011;7150;53.514;9.988;2024-01-15T13:53:11;3.00;;;1.93;;
14139;SDS011;7150;53.514;9.988;2024-01-15T13:55:37;3.07;;;2.30;;
14139;SDS011;7150;53.514;9.988;2024-01-15T13:58:02;3.23;;;2.30;;
14139;SDS011;7150;53.514;9.988;2024-01-15T14:00:30;3.57;;;2.70;;
14139;SDS011;7150;53.514;9.988;2024-01-15T14:02:56;4.20;;;2.83;;
14139;SDS011;7150;53.514;9.988;2024-01-15T14:05:22;4.30;;;2.50;;
14139;SDS011;7150;53.514;9.988;2024-01-15T14:07:48;3.87;;;2.70;;
14139;SDS011;7150;53.514;9.988;2024-01-15T14:10:13;5.00;;;2.50;;
14139;SDS011;7150;53.514;9.988;2024-01-15T14:12:39;2.90;;;2.57;;
14139;SDS011;7150;53.514;9.988;2024-01-15T14:15:05;5.40;;;2.80;;
14139;SDS011;7150;53.514;9.988;2024-01-15T14:17:31;3.77;;;2.50;;
14139;SDS011;7150;53.514;9.988;2024-01-15T14:19:57;3.13;;;2.47;;
14139;SDS011;7150;53.514;9.988;2024-01-15T14:22:22;3.10;;;2.23;;
14139;SDS011;7150;53.514;9.988;2024-01-15T14:24:48;2.83;;;2.03;;
14139;SDS011;7150;53.514;9.988;2024-01-15T14:27:13;2.10;;;1.53;;
14139;SDS011;7150;53.514;9.988;2024-01-15T14:29:39;2.93;;;1.83;;
14139;SDS011;7150;53.514;9.988;2024-01-15T14:32:05;3.43;;;2.00;;
14139;SDS011;7150;53.514;9.988;2024-01-15T14:34:30;2.30;;;1.90;;
14139;SDS011;7150;53.514;9.988;2024-01-15T14:36:56;3.27;;;1.70;;
14139;SDS011;7150;53.514;9.988;2024-01-15T14:39:22;3.03;;;1.70;;
14139;SDS011;7150;53.514;9.988;2024-01-15T14:41:48;2.10;;;1.70;;
14139;SDS011;7150;53.514;9.988;2024-01-15T14:44:13;3.47;;;2.03;;
14139;SDS011;7150;53.514;9.988;2024-01-15T14:46:39;4.37;;;2.27;;
14139;SDS011;7150;53.514;9.988;2024-01-15T14:49:05;5.23;;;2.20;;
14139;SDS011;7150;53.514;9.988;2024-01-15T14:51:30;3.57;;;1.93;;
14139;SDS011;7150;53.514;9.988;2024-01-15T14:53:56;4.03;;;2.10;;
14139;SDS011;7150;53.514;9.988;2024-01-15T14:56:21;2.73;;;2.07;;
14139;SDS011;7150;53.514;9.988;2024-01-15T14:58:47;2.90;;;1.80;;
14139;SDS011;7150;53.514;9.988;2024-01-15T15:01:13;2.57;;;1.93;;
14139;SDS011;7150;53.514;9.988;2024-01-15T15:03:39;2.80;;;2.23;;
14139;SDS011;7150;53.514;9.988;2024-01-15T15:06:05;2.73;;;1.83;;
14139;SDS011;7150;53.514;9.988;2024-01-15T15:08:32;2.30;;;2.03;;
14139;SDS011;7150;53.514;9.988;2024-01-15T15:10:58;3.67;;;2.60;;
14139;SDS011;7150;53.514;9.988;2024-01-15T15:13:24;4.63;;;2.60;;
14139;SDS011;7150;53.514;9.988;2024-01-15T15:15:50;4.97;;;2.77;;